sensor_id;sensor_type;location;lat;lon;timestamp;P1;durP1;ratioP1;P2;durP2;ratioP2
22812;SDS011;11573;51.334;3.244;2022-08-18T00:01:09;26.60;;;23.67;;
22812;SDS011;11573;51.334;3.244;2022-08-18T00:03:40;22.42;;;20.10;;
22812;SDS011;11573;51.334;3.244;2022-08-18T00:06:28;26.52;;;20.20;;
22812;SDS011;11573;51.334;3.244;2022-08-18T00:08:59;21.27;;;19.17;;
22812;SDS011;11573;51.334;3.244;2022-08-18T00:11:27;24.73;;;19.85;;
22812;SDS011;11573;51.334;3.244;2022-08-18T00:14:12;23.30;;;20.73;;
22812;SDS011;11573;51.334;3.244;2022-08-18T00:16:50;25.67;;;21.63;;
22812;SDS011;11573;51.334;3.244;2022-08-18T00:19:19;23.55;;;21.15;;
22812;SDS011;11573;51.334;3.244;2022-08-18T00:22:08;26.23;;;20.98;;
22812;SDS011;11573;51.334;3.244;2022-08-18T00:24:41;25.30;;;22.55;;
22812;SDS011;11573;51.334;3.244;2022-08-18T00:27:15;25.80;;;21.65;;
22812;SDS011;11573;51.334;3.244;2022-08-18T00:29:48;23.60;;;20.02;;
22812;SDS011;11573;51.334;3.244;2022-08-18T00:32:17;23.35;;;18.88;;
22812;SDS011;11573;51.334;3.244;2022-08-18T00:34:46;20.88;;;16.35;;
22812;SDS011;11573;51.334;3.244;2022-08-18T00:37:13;19.58;;;14.68;;
22812;SDS011;11573;51.334;3.244;2022-08-18T00:39:40;19.92;;;15.15;;
22812;SDS011;11573;51.334;3.244;2022-08-18T00:42:17;16.92;;;15.13;;
22812;SDS011;11573;51.334;3.244;2022-08-18T00:44:57;17.33;;;14.23;;
22812;SDS011;11573;51.334;3.244;2022-08-18T00:47:27;15.38;;;13.88;;
22812;SDS011;11573;51.334;3.244;2022-08-18T00:50:09;16.77;;;13.85;;
22812;SDS011;11573;51.334;3.244;2022-08-18T00:52:42;16.00;;;13.82;;
22812;SDS011;11573;51.334;3.244;2022-08-18T00:55:11;16.15;;;13.48;;
22812;SDS011;11573;51.334;3.244;2022-08-18T00:57:38;15.20;;;13.07;;
22812;SDS011;11573;51.334;3.244;2022-08-18T01:00:08;16.58;;;12.77;;
22812;SDS011;11573;51.334;3.244;2022-08-18T01:02:39;14.30;;;12.85;;
22812;SDS011;11573;51.334;3.244;2022-08-18T01:05:20;15.18;;;13.45;;
22812;SDS011;11573;51.334;3.244;2022-08-18T01:07:49;14.90;;;13.50;;
22812;SDS011;11573;51.334;3.244;2022-08-18T01:10:18;16.02;;;13.70;;
22812;SDS011;11573;51.334;3.244;2022-08-18T01:12:52;14.77;;;12.82;;
22812;SDS011;11573;51.334;3.244;2022-08-18T01:15:20;16.67;;;13.77;;
22812;SDS011;11573;51.334;3.244;2022-08-18T01:17:59;14.85;;;12.40;;
22812;SDS011;11573;51.334;3.244;2022-08-18T01:20:59;15.88;;;13.43;;
22812;SDS011;11573;51.334;3.244;2022-08-18T01:23:50;15.10;;;12.07;;
22812;SDS011;11573;51.334;3.244;2022-08-18T01:26:20;13.55;;;12.18;;
22812;SDS011;11573;51.334;3.244;2022-08-18T01:28:49;14.77;;;13.13;;
22812;SDS011;11573;51.334;3.244;2022-08-18T01:31:35;14.57;;;12.93;;
22812;SDS011;11573;51.334;3.244;2022-08-18T01:34:08;14.50;;;13.10;;
22812;SDS011;11573;51.334;3.244;2022-08-18T01:36:37;21.20;;;15.40;;
22812;SDS011;11573;51.334;3.244;2022-08-18T01:39:07;17.33;;;15.63;;
22812;SDS011;11573;51.334;3.244;2022-08-18T01:41:36;18.95;;;17.10;;
22812;SDS011;11573;51.334;3.244;2022-08-18T01:44:04;20.10;;;16.60;;
22812;SDS011;11573;51.334;3.244;2022-08-18T01:46:32;18.42;;;16.38;;
22812;SDS011;11573;51.334;3.244;2022-08-18T01:49:00;18.02;;;15.13;;
22812;SDS011;11573;51.334;3.244;2022-08-18T01:51:29;17.85;;;15.82;;
22812;SDS011;11573;51.334;3.244;2022-08-18T01:54:06;32.78;;;15.85;;
22812;SDS011;11573;51.334;3.244;2022-08-18T01:56:35;20.83;;;15.43;;
22812;SDS011;11573;51.334;3.244;2022-08-18T01:59:02;17.63;;;15.75;;
22812;SDS011;11573;51.334;3.244;2022-08-18T02:01:30;17.25;;;15.07;;
22812;SDS011;11573;51.334;3.244;2022-08-18T02:04:02;19.50;;;17.50;;
22812;SDS011;11573;51.334;3.244;2022-08-18T02:06:53;19.92;;;17.88;;
22812;SDS011;11573;51.334;3.244;2022-08-18T02:09:22;22.48;;;19.02;;
22812;SDS011;11573;51.334;3.244;2022-08-18T02:11:50;21.77;;;19.50;;
22812;SDS011;11573;51.334;3.244;2022-08-18T02:14:22;21.00;;;18.92;;
22812;SDS011;11573;51.334;3.244;2022-08-18T02:16:55;22.67;;;20.55;;
22812;SDS011;11573;51.334;3.244;2022-08-18T02:19:35;22.25;;;19.75;;
22812;SDS011;11573;51.334;3.244;2022-08-18T02:22:05;25.92;;;21.25;;
22812;SDS011;11573;51.334;3.244;2022-08-18T02:24:33;25.80;;;22.17;;
22812;SDS011;11573;51.334;3.244;2022-08-18T02:27:00;27.35;;;24.48;;
22812;SDS011;11573;51.334;3.244;2022-08-18T02:29:27;29.75;;;26.67;;
22812;SDS011;11573;51.334;3.244;2022-08-18T02:31:55;30.95;;;27.55;;
22812;SDS011;11573;51.334;3.244;2022-08-18T02:34:22;33.85;;;30.25;;
22812;SDS011;11573;51.334;3.244;2022-08-18T02:36:50;35.80;;;32.17;;
22812;SDS011;11573;51.334;3.244;2022-08-18T02:39:18;39.67;;;35.47;;
22812;SDS011;11573;51.334;3.244;2022-08-18T02:41:45;36.97;;;32.55;;
22812;SDS011;11573;51.334;3.244;2022-08-18T02:44:12;37.58;;;33.55;;
22812;SDS011;11573;51.334;3.244;2022-08-18T02:46:39;37.00;;;31.15;;
22812;SDS011;11573;51.334;3.244;2022-08-18T02:49:06;30.35;;;27.05;;
22812;SDS011;11573;51.334;3.244;2022-08-18T02:51:33;31.20;;;27.80;;
22812;SDS011;11573;51.334;3.244;2022-08-18T02:54:01;34.03;;;30.20;;
22812;SDS011;11573;51.334;3.244;2022-08-18T02:56:29;39.92;;;29.70;;
22812;SDS011;11573;51.334;3.244;2022-08-18T02:59:08;31.15;;;27.38;;
22812;SDS011;11573;51.334;3.244;2022-08-18T03:01:39;41.00;;;36.70;;
22812;SDS011;11573;51.334;3.244;2022-08-18T03:04:08;39.25;;;34.88;;
22812;SDS011;11573;51.334;3.244;2022-08-18T03:06:37;43.95;;;37.80;;
22812;SDS011;11573;51.334;3.244;2022-08-18T03:09:05;43.47;;;37.80;;
22812;SDS011;11573;51.334;3.244;2022-08-18T03:11:33;43.47;;;38.80;;
22812;SDS011;11573;51.334;3.244;2022-08-18T03:14:01;40.17;;;36.00;;
22812;SDS011;11573;51.334;3.244;2022-08-18T03:16:30;41.80;;;36.38;;
22812;SDS011;11573;51.334;3.244;2022-08-18T03:18:59;42.53;;;37.80;;
22812;SDS011;11573;51.334;3.244;2022-08-18T03:21:28;47.75;;;38.72;;
22812;SDS011;11573;51.334;3.244;2022-08-18T03:23:57;48.53;;;37.83;;
22812;SDS011;11573;51.334;3.244;2022-08-18T03:26:27;45.33;;;39.65;;
22812;SDS011;11573;51.334;3.244;2022-08-18T03:28:55;47.03;;;39.83;;
22812;SDS011;11573;51.334;3.244;2022-08-18T03:31:23;46.60;;;37.80;;
22812;SDS011;11573;51.334;3.244;2022-08-18T03:33:54;45.47;;;39.47;;
22812;SDS011;11573;51.334;3.244;2022-08-18T03:36:26;45.53;;;38.83;;
22812;SDS011;11573;51.334;3.244;2022-08-18T03:38:56;45.20;;;38.60;;
22812;SDS011;11573;51.334;3.244;2022-08-18T03:41:25;46.95;;;38.83;;
22812;SDS011;11573;51.334;3.244;2022-08-18T03:44:13;44.13;;;38.20;;
22812;SDS011;11573;51.334;3.244;2022-08-18T03:46:41;47.20;;;36.55;;
22812;SDS011;11573;51.334;3.244;2022-08-18T03:49:09;43.00;;;36.03;;
22812;SDS011;11573;51.334;3.244;2022-08-18T03:51:37;40.47;;;34.42;;
22812;SDS011;11573;51.334;3.244;2022-08-18T03:54:09;47.45;;;40.40;;
22812;SDS011;11573;51.334;3.244;2022-08-18T03:56:40;46.92;;;38.33;;
22812;SDS011;11573;51.334;3.244;2022-08-18T03:59:12;44.17;;;38.33;;
22812;SDS011;11573;51.334;3.244;2022-08-18T04:01:43;49.13;;;39.05;;
22812;SDS011;11573;51.334;3.244;2022-08-18T04:04:14;47.05;;;39.05;;
22812;SDS011;11573;51.334;3.244;2022-08-18T04:06:44;44.90;;;38.78;;
22812;SDS011;11573;51.334;3.244;2022-08-18T04:09:16;52.35;;;42.90;;
22812;SDS011;11573;51.334;3.244;2022-08-18T04:11:44;53.85;;;44.83;;
22812;SDS011;11573;51.334;3.244;2022-08-18T04:14:15;51.55;;;43.35;;
22812;SDS011;11573;51.334;3.244;2022-08-18T04:16:45;49.65;;;44.13;;
22812;SDS011;11573;51.334;3.244;2022-08-18T04:19:14;46.90;;;41.53;;
22812;SDS011;11573;51.334;3.244;2022-08-18T04:21:53;42.17;;;37.30;;
22812;SDS011;11573;51.334;3.244;2022-08-18T04:24:21;32.97;;;26.83;;
22812;SDS011;11573;51.334;3.244;2022-08-18T04:26:50;32.75;;;29.15;;
22812;SDS011;11573;51.334;3.244;2022-08-18T04:29:18;26.73;;;21.63;;
22812;SDS011;11573;51.334;3.244;2022-08-18T04:31:47;22.63;;;20.23;;
22812;SDS011;11573;51.334;3.244;2022-08-18T04:34:15;19.80;;;17.80;;
22812;SDS011;11573;51.334;3.244;2022-08-18T04:36:45;24.02;;;17.83;;
22812;SDS011;11573;51.334;3.244;2022-08-18T04:39:12;20.92;;;16.80;;
22812;SDS011;11573;51.334;3.244;2022-08-18T04:41:41;18.55;;;15.55;;
22812;SDS011;11573;51.334;3.244;2022-08-18T04:44:09;24.52;;;22.08;;
22812;SDS011;11573;51.334;3.244;2022-08-18T04:46:38;22.55;;;18.05;;
22812;SDS011;11573;51.334;3.244;2022-08-18T04:49:07;24.70;;;18.25;;
22812;SDS011;11573;51.334;3.244;2022-08-18T04:51:38;24.33;;;20.50;;
22812;SDS011;11573;51.334;3.244;2022-08-18T04:54:27;36.50;;;22.05;;
22812;SDS011;11573;51.334;3.244;2022-08-18T04:56:54;29.20;;;24.00;;
22812;SDS011;11573;51.334;3.244;2022-08-18T04:59:21;33.13;;;27.75;;
22812;SDS011;11573;51.334;3.244;2022-08-18T05:01:48;39.75;;;35.05;;
22812;SDS011;11573;51.334;3.244;2022-08-18T05:04:16;38.28;;;34.13;;
22812;SDS011;11573;51.334;3.244;2022-08-18T05:06:44;40.55;;;36.20;;
22812;SDS011;11573;51.334;3.244;2022-08-18T05:09:12;44.05;;;38.22;;
22812;SDS011;11573;51.334;3.244;2022-08-18T05:11:48;45.78;;;39.95;;
22812;SDS011;11573;51.334;3.244;2022-08-18T05:14:16;47.97;;;40.35;;
22812;SDS011;11573;51.334;3.244;2022-08-18T05:16:43;46.75;;;39.45;;
22812;SDS011;11573;51.334;3.244;2022-08-18T05:19:15;49.13;;;37.08;;
22812;SDS011;11573;51.334;3.244;2022-08-18T05:21:49;39.83;;;33.53;;
22812;SDS011;11573;51.334;3.244;2022-08-18T05:24:17;37.33;;;30.05;;
22812;SDS011;11573;51.334;3.244;2022-08-18T05:26:45;33.40;;;25.60;;
22812;SDS011;11573;51.334;3.244;2022-08-18T05:29:14;37.58;;;25.92;;
22812;SDS011;11573;51.334;3.244;2022-08-18T05:31:44;39.05;;;32.72;;
22812;SDS011;11573;51.334;3.244;2022-08-18T05:34:13;42.33;;;33.38;;
22812;SDS011;11573;51.334;3.244;2022-08-18T05:44:33;41.33;;;35.38;;
22812;SDS011;11573;51.334;3.244;2022-08-18T05:47:04;40.33;;;34.80;;
22812;SDS011;11573;51.334;3.244;2022-08-18T05:49:37;40.03;;;34.33;;
22812;SDS011;11573;51.334;3.244;2022-08-18T05:52:08;38.50;;;30.63;;
22812;SDS011;11573;51.334;3.244;2022-08-18T05:54:42;41.15;;;32.53;;
22812;SDS011;11573;51.334;3.244;2022-08-18T05:57:33;43.10;;;35.78;;
22812;SDS011;11573;51.334;3.244;2022-08-18T06:00:07;45.03;;;34.70;;
22812;SDS011;11573;51.334;3.244;2022-08-18T06:03:14;52.45;;;41.75;;
22812;SDS011;11573;51.334;3.244;2022-08-18T06:05:57;54.80;;;42.65;;
22812;SDS011;11573;51.334;3.244;2022-08-18T06:08:28;54.72;;;41.70;;
22812;SDS011;11573;51.334;3.244;2022-08-18T06:11:01;57.42;;;43.63;;
22812;SDS011;11573;51.334;3.244;2022-08-18T06:13:29;54.42;;;42.97;;
22812;SDS011;11573;51.334;3.244;2022-08-18T06:27:19;47.90;;;40.80;;
22812;SDS011;11573;51.334;3.244;2022-08-18T06:33:08;48.42;;;39.25;;
22812;SDS011;11573;51.334;3.244;2022-08-18T06:35:37;55.08;;;41.15;;
22812;SDS011;11573;51.334;3.244;2022-08-18T06:38:32;49.78;;;39.28;;
22812;SDS011;11573;51.334;3.244;2022-08-18T06:41:20;56.17;;;38.40;;
22812;SDS011;11573;51.334;3.244;2022-08-18T06:44:12;59.20;;;42.33;;
22812;SDS011;11573;51.334;3.244;2022-08-18T06:49:39;56.15;;;41.47;;
22812;SDS011;11573;51.334;3.244;2022-08-18T06:52:25;60.90;;;41.92;;
22812;SDS011;11573;51.334;3.244;2022-08-18T06:55:00;52.53;;;40.75;;
22812;SDS011;11573;51.334;3.244;2022-08-18T06:57:54;53.45;;;41.60;;
22812;SDS011;11573;51.334;3.244;2022-08-18T07:00:27;50.50;;;43.22;;
22812;SDS011;11573;51.334;3.244;2022-08-18T07:05:31;42.40;;;34.67;;
22812;SDS011;11573;51.334;3.244;2022-08-18T07:08:04;46.35;;;36.30;;
22812;SDS011;11573;51.334;3.244;2022-08-18T07:10:37;39.03;;;33.50;;
22812;SDS011;11573;51.334;3.244;2022-08-18T07:15:42;42.30;;;32.55;;
22812;SDS011;11573;51.334;3.244;2022-08-18T07:18:11;40.05;;;31.20;;
22812;SDS011;11573;51.334;3.244;2022-08-18T07:20:43;39.40;;;32.72;;
22812;SDS011;11573;51.334;3.244;2022-08-18T07:26:01;38.15;;;29.88;;
22812;SDS011;11573;51.334;3.244;2022-08-18T07:28:34;35.47;;;28.17;;
22812;SDS011;11573;51.334;3.244;2022-08-18T07:31:20;30.50;;;25.95;;
22812;SDS011;11573;51.334;3.244;2022-08-18T07:34:21;28.42;;;25.10;;
22812;SDS011;11573;51.334;3.244;2022-08-18T07:36:54;28.88;;;25.65;;
22812;SDS011;11573;51.334;3.244;2022-08-18T07:39:33;27.00;;;22.25;;
22812;SDS011;11573;51.334;3.244;2022-08-18T07:45:31;24.10;;;20.77;;
22812;SDS011;11573;51.334;3.244;2022-08-18T07:54:07;26.65;;;21.02;;
22812;SDS011;11573;51.334;3.244;2022-08-18T07:57:02;24.27;;;20.25;;
22812;SDS011;11573;51.334;3.244;2022-08-18T08:00:01;20.92;;;18.48;;
22812;SDS011;11573;51.334;3.244;2022-08-18T08:03:13;22.15;;;19.65;;
22812;SDS011;11573;51.334;3.244;2022-08-18T08:06:23;21.10;;;18.80;;
22812;SDS011;11573;51.334;3.244;2022-08-18T08:09:33;20.88;;;18.50;;
22812;SDS011;11573;51.334;3.244;2022-08-18T08:12:27;19.25;;;15.63;;
22812;SDS011;11573;51.334;3.244;2022-08-18T08:15:02;17.63;;;14.75;;
22812;SDS011;11573;51.334;3.244;2022-08-18T08:20:42;16.05;;;14.35;;
22812;SDS011;11573;51.334;3.244;2022-08-18T08:32:02;6.65;;;5.75;;
22812;SDS011;11573;51.334;3.244;2022-08-18T08:37:05;7.70;;;6.55;;
22812;SDS011;11573;51.334;3.244;2022-08-18T08:45:15;8.13;;;5.28;;
22812;SDS011;11573;51.334;3.244;2022-08-18T08:47:55;5.68;;;4.72;;
22812;SDS011;11573;51.334;3.244;2022-08-18T08:53:55;8.90;;;5.15;;
22812;SDS011;11573;51.334;3.244;2022-08-18T08:56:24;6.90;;;5.05;;
22812;SDS011;11573;51.334;3.244;2022-08-18T08:59:12;6.38;;;5.32;;
22812;SDS011;11573;51.334;3.244;2022-08-18T09:07:47;10.82;;;5.47;;
22812;SDS011;11573;51.334;3.244;2022-08-18T09:11:14;6.97;;;4.88;;
22812;SDS011;11573;51.334;3.244;2022-08-18T09:13:45;5.68;;;5.07;;
22812;SDS011;11573;51.334;3.244;2022-08-18T09:22:52;7.65;;;4.32;;
22812;SDS011;11573;51.334;3.244;2022-08-18T09:28:06;5.63;;;4.35;;
22812;SDS011;11573;51.334;3.244;2022-08-18T09:30:41;6.32;;;3.95;;
22812;SDS011;11573;51.334;3.244;2022-08-18T09:42:08;6.55;;;4.55;;
22812;SDS011;11573;51.334;3.244;2022-08-18T09:44:56;8.18;;;4.70;;
22812;SDS011;11573;51.334;3.244;2022-08-18T09:49:56;6.97;;;4.78;;
22812;SDS011;11573;51.334;3.244;2022-08-18T09:52:54;4.95;;;4.35;;
22812;SDS011;11573;51.334;3.244;2022-08-18T10:06:47;5.22;;;4.32;;
22812;SDS011;11573;51.334;3.244;2022-08-18T10:18:20;5.82;;;4.88;;
22812;SDS011;11573;51.334;3.244;2022-08-18T10:21:11;7.43;;;4.68;;
22812;SDS011;11573;51.334;3.244;2022-08-18T10:26:57;7.57;;;4.20;;
22812;SDS011;11573;51.334;3.244;2022-08-18T10:34:41;4.88;;;3.85;;
22812;SDS011;11573;51.334;3.244;2022-08-18T10:39:52;6.10;;;4.45;;
22812;SDS011;11573;51.334;3.244;2022-08-18T10:42:34;7.05;;;4.35;;
22812;SDS011;11573;51.334;3.244;2022-08-18T10:45:51;5.95;;;4.30;;
22812;SDS011;11573;51.334;3.244;2022-08-18T10:48:39;4.60;;;4.15;;
22812;SDS011;11573;51.334;3.244;2022-08-18T10:54:05;7.00;;;4.28;;
22812;SDS011;11573;51.334;3.244;2022-08-18T10:57:25;6.82;;;4.40;;
22812;SDS011;11573;51.334;3.244;2022-08-18T11:00:07;6.18;;;3.88;;
22812;SDS011;11573;51.334;3.244;2022-08-18T11:02:50;4.72;;;3.78;;
22812;SDS011;11573;51.334;3.244;2022-08-18T11:06:02;4.88;;;4.10;;
22812;SDS011;11573;51.334;3.244;2022-08-18T11:08:44;6.57;;;4.68;;
22812;SDS011;11573;51.334;3.244;2022-08-18T11:11:21;6.40;;;5.00;;
22812;SDS011;11573;51.334;3.244;2022-08-18T11:14:11;5.10;;;4.43;;
22812;SDS011;11573;51.334;3.244;2022-08-18T11:17:20;6.47;;;3.72;;
22812;SDS011;11573;51.334;3.244;2022-08-18T11:20:06;5.53;;;4.38;;
22812;SDS011;11573;51.334;3.244;2022-08-18T11:22:36;5.07;;;4.15;;
22812;SDS011;11573;51.334;3.244;2022-08-18T11:25:19;6.13;;;3.72;;
22812;SDS011;11573;51.334;3.244;2022-08-18T11:27:59;6.43;;;3.92;;
22812;SDS011;11573;51.334;3.244;2022-08-18T11:30:28;7.07;;;4.40;;
22812;SDS011;11573;51.334;3.244;2022-08-18T11:35:30;5.68;;;4.43;;
22812;SDS011;11573;51.334;3.244;2022-08-18T11:38:11;6.95;;;4.25;;
22812;SDS011;11573;51.334;3.244;2022-08-18T11:41:10;6.72;;;4.25;;
22812;SDS011;11573;51.334;3.244;2022-08-18T11:43:44;4.68;;;4.20;;
22812;SDS011;11573;51.334;3.244;2022-08-18T11:48:55;5.68;;;4.22;;
22812;SDS011;11573;51.334;3.244;2022-08-18T11:51:26;6.50;;;4.13;;
22812;SDS011;11573;51.334;3.244;2022-08-18T11:53:59;5.47;;;3.90;;
22812;SDS011;11573;51.334;3.244;2022-08-18T11:56:36;4.82;;;4.28;;
22812;SDS011;11573;51.334;3.244;2022-08-18T11:59:28;4.85;;;3.80;;
22812;SDS011;11573;51.334;3.244;2022-08-18T12:02:17;6.05;;;4.30;;
22812;SDS011;11573;51.334;3.244;2022-08-18T12:04:51;5.88;;;4.53;;
22812;SDS011;11573;51.334;3.244;2022-08-18T12:07:30;5.57;;;4.63;;
22812;SDS011;11573;51.334;3.244;2022-08-18T12:10:15;5.18;;;4.50;;
22812;SDS011;11573;51.334;3.244;2022-08-18T12:12:53;5.28;;;4.35;;
22812;SDS011;11573;51.334;3.244;2022-08-18T12:15:31;6.55;;;4.40;;
22812;SDS011;11573;51.334;3.244;2022-08-18T12:18:12;5.60;;;4.63;;
22812;SDS011;11573;51.334;3.244;2022-08-18T12:20:57;6.50;;;4.40;;
22812;SDS011;11573;51.334;3.244;2022-08-18T12:23:28;6.70;;;4.60;;
22812;SDS011;11573;51.334;3.244;2022-08-18T12:28:52;4.88;;;4.40;;
22812;SDS011;11573;51.334;3.244;2022-08-18T12:31:26;6.40;;;4.60;;
22812;SDS011;11573;51.334;3.244;2022-08-18T12:34:08;5.63;;;4.88;;
22812;SDS011;11573;51.334;3.244;2022-08-18T12:36:40;5.00;;;4.25;;
22812;SDS011;11573;51.334;3.244;2022-08-18T12:39:08;5.43;;;4.00;;
22812;SDS011;11573;51.334;3.244;2022-08-18T12:41:36;6.28;;;4.05;;
22812;SDS011;11573;51.334;3.244;2022-08-18T12:44:03;4.90;;;4.30;;
22812;SDS011;11573;51.334;3.244;2022-08-18T12:46:38;6.80;;;4.10;;
22812;SDS011;11573;51.334;3.244;2022-08-18T12:49:18;5.13;;;3.80;;
22812;SDS011;11573;51.334;3.244;2022-08-18T12:51:47;4.82;;;4.00;;
22812;SDS011;11573;51.334;3.244;2022-08-18T12:54:17;6.80;;;3.53;;
22812;SDS011;11573;51.334;3.244;2022-08-18T12:56:47;6.53;;;5.45;;
22812;SDS011;11573;51.334;3.244;2022-08-18T12:59:17;4.97;;;3.85;;
22812;SDS011;11573;51.334;3.244;2022-08-18T13:01:44;6.60;;;4.00;;
22812;SDS011;11573;51.334;3.244;2022-08-18T13:04:11;4.97;;;4.13;;
22812;SDS011;11573;51.334;3.244;2022-08-18T13:12:13;3.70;;;3.40;;
22812;SDS011;11573;51.334;3.244;2022-08-18T13:14:42;4.28;;;3.67;;
22812;SDS011;11573;51.334;3.244;2022-08-18T13:17:10;7.95;;;4.15;;
22812;SDS011;11573;51.334;3.244;2022-08-18T13:19:58;7.05;;;3.97;;
22812;SDS011;11573;51.334;3.244;2022-08-18T13:22:26;4.00;;;3.60;;
22812;SDS011;11573;51.334;3.244;2022-08-18T13:24:58;4.13;;;3.60;;
22812;SDS011;11573;51.334;3.244;2022-08-18T13:27:26;7.43;;;4.18;;
22812;SDS011;11573;51.334;3.244;2022-08-18T13:30:02;4.93;;;3.65;;
22812;SDS011;11573;51.334;3.244;2022-08-18T13:32:51;5.07;;;3.65;;
22812;SDS011;11573;51.334;3.244;2022-08-18T13:35:26;5.10;;;3.80;;
22812;SDS011;11573;51.334;3.244;2022-08-18T13:38:00;7.90;;;3.80;;
22812;SDS011;11573;51.334;3.244;2022-08-18T13:40:42;4.20;;;3.53;;
22812;SDS011;11573;51.334;3.244;2022-08-18T13:43:13;5.93;;;3.55;;
22812;SDS011;11573;51.334;3.244;2022-08-18T13:45:42;4.63;;;3.13;;
22812;SDS011;11573;51.334;3.244;2022-08-18T13:48:17;5.90;;;3.78;;
22812;SDS011;11573;51.334;3.244;2022-08-18T13:50:44;4.03;;;3.42;;
22812;SDS011;11573;51.334;3.244;2022-08-18T13:53:13;4.57;;;3.60;;
22812;SDS011;11573;51.334;3.244;2022-08-18T13:55:45;3.85;;;3.40;;
22812;SDS011;11573;51.334;3.244;2022-08-18T13:58:14;5.35;;;3.70;;
22812;SDS011;11573;51.334;3.244;2022-08-18T14:00:47;3.72;;;3.22;;
22812;SDS011;11573;51.334;3.244;2022-08-18T14:03:19;4.43;;;3.10;;
22812;SDS011;11573;51.334;3.244;2022-08-18T14:06:09;4.80;;;3.55;;
22812;SDS011;11573;51.334;3.244;2022-08-18T14:08:39;4.47;;;3.88;;
22812;SDS011;11573;51.334;3.244;2022-08-18T14:11:07;3.50;;;3.17;;
22812;SDS011;11573;51.334;3.244;2022-08-18T14:13:35;4.30;;;3.90;;
22812;SDS011;11573;51.334;3.244;2022-08-18T14:16:08;6.68;;;3.88;;
22812;SDS011;11573;51.334;3.244;2022-08-18T14:21:35;4.13;;;3.70;;
22812;SDS011;11573;51.334;3.244;2022-08-18T14:24:30;5.18;;;3.78;;
22812;SDS011;11573;51.334;3.244;2022-08-18T14:27:17;4.60;;;4.00;;
22812;SDS011;11573;51.334;3.244;2022-08-18T14:29:45;5.82;;;4.20;;
22812;SDS011;11573;51.334;3.244;2022-08-18T14:32:17;6.80;;;4.22;;
22812;SDS011;11573;51.334;3.244;2022-08-18T14:34:59;6.55;;;3.95;;
22812;SDS011;11573;51.334;3.244;2022-08-18T14:37:48;4.80;;;4.00;;
22812;SDS011;11573;51.334;3.244;2022-08-18T14:40:15;4.13;;;3.70;;
22812;SDS011;11573;51.334;3.244;2022-08-18T14:42:45;4.55;;;3.90;;
22812;SDS011;11573;51.334;3.244;2022-08-18T14:45:22;5.35;;;3.65;;
22812;SDS011;11573;51.334;3.244;2022-08-18T14:48:01;6.10;;;3.80;;
22812;SDS011;11573;51.334;3.244;2022-08-18T14:50:33;4.88;;;3.40;;
22812;SDS011;11573;51.334;3.244;2022-08-18T14:53:02;4.18;;;3.55;;
22812;SDS011;11573;51.334;3.244;2022-08-18T14:55:29;3.60;;;3.30;;
22812;SDS011;11573;51.334;3.244;2022-08-18T14:57:57;4.40;;;3.50;;
22812;SDS011;11573;51.334;3.244;2022-08-18T15:00:25;4.97;;;3.95;;
22812;SDS011;11573;51.334;3.244;2022-08-18T15:02:53;4.50;;;3.95;;
22812;SDS011;11573;51.334;3.244;2022-08-18T15:05:24;5.03;;;3.83;;
22812;SDS011;11573;51.334;3.244;2022-08-18T15:07:52;6.05;;;3.90;;
22812;SDS011;11573;51.334;3.244;2022-08-18T15:10:19;4.07;;;3.67;;
22812;SDS011;11573;51.334;3.244;2022-08-18T15:12:53;7.13;;;4.28;;
22812;SDS011;11573;51.334;3.244;2022-08-18T15:15:20;4.95;;;3.70;;
22812;SDS011;11573;51.334;3.244;2022-08-18T15:17:50;4.30;;;3.70;;
22812;SDS011;11573;51.334;3.244;2022-08-18T15:20:18;4.80;;;3.30;;
22812;SDS011;11573;51.334;3.244;2022-08-18T15:22:58;4.75;;;4.30;;
22812;SDS011;11573;51.334;3.244;2022-08-18T15:25:50;7.93;;;4.07;;
22812;SDS011;11573;51.334;3.244;2022-08-18T15:28:18;3.88;;;3.38;;
22812;SDS011;11573;51.334;3.244;2022-08-18T15:30:49;5.82;;;3.70;;
22812;SDS011;11573;51.334;3.244;2022-08-18T15:33:17;6.03;;;3.30;;
22812;SDS011;11573;51.334;3.244;2022-08-18T15:35:50;4.72;;;3.60;;
22812;SDS011;11573;51.334;3.244;2022-08-18T15:38:18;5.78;;;3.40;;
22812;SDS011;11573;51.334;3.244;2022-08-18T15:40:51;3.97;;;3.65;;
22812;SDS011;11573;51.334;3.244;2022-08-18T15:43:23;6.68;;;3.72;;
22812;SDS011;11573;51.334;3.244;2022-08-18T15:45:57;4.32;;;3.10;;
22812;SDS011;11573;51.334;3.244;2022-08-18T15:48:26;4.38;;;3.53;;
22812;SDS011;11573;51.334;3.244;2022-08-18T15:50:54;8.52;;;3.28;;
22812;SDS011;11573;51.334;3.244;2022-08-18T15:53:23;4.28;;;3.15;;
22812;SDS011;11573;51.334;3.244;2022-08-18T15:55:55;5.45;;;3.72;;
22812;SDS011;11573;51.334;3.244;2022-08-18T15:58:23;4.28;;;3.42;;
22812;SDS011;11573;51.334;3.244;2022-08-18T16:00:54;5.95;;;3.50;;
22812;SDS011;11573;51.334;3.244;2022-08-18T16:03:24;4.32;;;3.92;;
22812;SDS011;11573;51.334;3.244;2022-08-18T16:05:52;5.05;;;3.75;;
22812;SDS011;11573;51.334;3.244;2022-08-18T16:08:21;4.63;;;3.97;;
22812;SDS011;11573;51.334;3.244;2022-08-18T16:10:50;3.33;;;3.10;;
22812;SDS011;11573;51.334;3.244;2022-08-18T16:13:17;4.90;;;3.80;;
22812;SDS011;11573;51.334;3.244;2022-08-18T16:15:45;4.57;;;4.10;;
22812;SDS011;11573;51.334;3.244;2022-08-18T16:18:16;4.47;;;3.63;;
22812;SDS011;11573;51.334;3.244;2022-08-18T16:20:44;6.03;;;4.20;;
22812;SDS011;11573;51.334;3.244;2022-08-18T16:23:11;5.40;;;3.65;;
22812;SDS011;11573;51.334;3.244;2022-08-18T16:25:39;4.40;;;3.58;;
22812;SDS011;11573;51.334;3.244;2022-08-18T16:28:08;5.82;;;3.90;;
22812;SDS011;11573;51.334;3.244;2022-08-18T16:30:35;3.47;;;3.15;;
22812;SDS011;11573;51.334;3.244;2022-08-18T16:33:05;4.88;;;3.58;;
22812;SDS011;11573;51.334;3.244;2022-08-18T16:35:32;7.25;;;4.25;;
22812;SDS011;11573;51.334;3.244;2022-08-18T16:38:01;5.30;;;3.90;;
22812;SDS011;11573;51.334;3.244;2022-08-18T16:40:30;4.43;;;4.03;;
22812;SDS011;11573;51.334;3.244;2022-08-18T16:42:57;5.05;;;4.45;;
22812;SDS011;11573;51.334;3.244;2022-08-18T16:45:26;5.25;;;3.67;;
22812;SDS011;11573;51.334;3.244;2022-08-18T16:47:54;6.28;;;3.97;;
22812;SDS011;11573;51.334;3.244;2022-08-18T16:50:21;6.35;;;3.65;;
22812;SDS011;11573;51.334;3.244;2022-08-18T16:52:50;5.40;;;3.50;;
22812;SDS011;11573;51.334;3.244;2022-08-18T16:55:17;5.70;;;2.92;;
22812;SDS011;11573;51.334;3.244;2022-08-18T16:57:45;3.85;;;3.55;;
22812;SDS011;11573;51.334;3.244;2022-08-18T17:00:31;3.75;;;3.30;;
22812;SDS011;11573;51.334;3.244;2022-08-18T17:03:23;6.50;;;3.83;;
22812;SDS011;11573;51.334;3.244;2022-08-18T17:06:10;6.82;;;4.25;;
22812;SDS011;11573;51.334;3.244;2022-08-18T17:08:39;5.05;;;3.25;;
22812;SDS011;11573;51.334;3.244;2022-08-18T17:11:09;5.40;;;4.13;;
22812;SDS011;11573;51.334;3.244;2022-08-18T17:13:39;6.78;;;4.55;;
22812;SDS011;11573;51.334;3.244;2022-08-18T17:16:07;5.55;;;4.40;;
22812;SDS011;11573;51.334;3.244;2022-08-18T17:18:35;5.13;;;4.13;;
22812;SDS011;11573;51.334;3.244;2022-08-18T17:21:06;4.88;;;4.43;;
22812;SDS011;11573;51.334;3.244;2022-08-18T17:23:36;5.40;;;4.30;;
22812;SDS011;11573;51.334;3.244;2022-08-18T17:26:05;9.90;;;4.78;;
22812;SDS011;11573;51.334;3.244;2022-08-18T17:28:41;4.63;;;3.75;;
22812;SDS011;11573;51.334;3.244;2022-08-18T17:31:17;4.53;;;3.83;;
22812;SDS011;11573;51.334;3.244;2022-08-18T17:33:45;5.50;;;4.40;;
22812;SDS011;11573;51.334;3.244;2022-08-18T17:36:18;6.72;;;4.05;;
22812;SDS011;11573;51.334;3.244;2022-08-18T17:38:55;5.72;;;4.28;;